sensor_id;sensor_type;location;lat;lon;timestamp;P1;durP1;ratioP1;P2;durP2;ratioP2
38715;SDS011;24833;49.324;8.694;2023-07-28T00:01:09;2.15;;;1.55;;
38715;SDS011;24833;49.324;8.694;2023-07-28T00:03:36;2.15;;;1.77;;
38715;SDS011;24833;49.324;8.694;2023-07-28T00:06:03;3.20;;;1.67;;
38715;SDS011;24833;49.324;8.694;2023-07-28T00:08:30;1.77;;;1.67;;
38715;SDS011;24833;49.324;8.694;2023-07-28T00:10:57;2.60;;;1.80;;
38715;SDS011;24833;49.324;8.694;2023-07-28T00:13:24;1.98;;;1.83;;
38715;SDS011;24833;49.324;8.694;2023-07-28T00:15:51;1.98;;;1.85;;
38715;SDS011;24833;49.324;8.694;2023-07-28T00:18:18;2.22;;;1.88;;
38715;SDS011;24833;49.324;8.694;2023-07-28T00:20:47;2.10;;;1.88;;
38715;SDS011;24833;49.324;8.694;2023-07-28T00:23:14;2.10;;;1.90;;
38715;SDS011;24833;49.324;8.694;2023-07-28T00:25:41;3.20;;;1.95;;
38715;SDS011;24833;49.324;8.694;2023-07-28T00:28:08;4.30;;;1.98;;
38715;SDS011;24833;49.324;8.694;2023-07-28T00:30:35;1.70;;;1.55;;
38715;SDS011;24833;49.324;8.694;2023-07-28T00:33:02;1.88;;;1.77;;
38715;SDS011;24833;49.324;8.694;2023-07-28T00:35:29;2.20;;;2.00;;
38715;SDS011;24833;49.324;8.694;2023-07-28T00:37:57;2.08;;;1.70;;
38715;SDS011;24833;49.324;8.694;2023-07-28T00:40:25;2.72;;;1.90;;
38715;SDS011;24833;49.324;8.694;2023-07-28T00:42:52;2.00;;;1.65;;
38715;SDS011;24833;49.324;8.694;2023-07-28T00:45:19;1.58;;;1.48;;
38715;SDS011;24833;49.324;8.694;2023-07-28T00:47:48;1.67;;;1.58;;
38715;SDS011;24833;49.324;8.694;2023-07-28T00:50:15;1.45;;;1.35;;
38715;SDS011;24833;49.324;8.694;2023-07-28T00:52:42;4.53;;;2.35;;
38715;SDS011;24833;49.324;8.694;2023-07-28T00:55:09;1.88;;;1.73;;
38715;SDS011;24833;49.324;8.694;2023-07-28T00:57:36;2.47;;;1.95;;
38715;SDS011;24833;49.324;8.694;2023-07-28T01:00:05;1.77;;;1.60;;
38715;SDS011;24833;49.324;8.694;2023-07-28T01:02:33;2.45;;;1.83;;
38715;SDS011;24833;49.324;8.694;2023-07-28T01:05:01;2.55;;;1.60;;
38715;SDS011;24833;49.324;8.694;2023-07-28T01:07:44;1.67;;;1.50;;
38715;SDS011;24833;49.324;8.694;2023-07-28T01:10:31;2.50;;;1.52;;
38715;SDS011;24833;49.324;8.694;2023-07-28T01:12:59;1.70;;;1.55;;
38715;SDS011;24833;49.324;8.694;2023-07-28T01:15:26;6.18;;;1.92;;
38715;SDS011;24833;49.324;8.694;2023-07-28T01:17:53;2.03;;;1.88;;
38715;SDS011;24833;49.324;8.694;2023-07-28T01:20:21;1.80;;;1.70;;
38715;SDS011;24833;49.324;8.694;2023-07-28T01:26:00;1.95;;;1.60;;
38715;SDS011;24833;49.324;8.694;2023-07-28T01:28:35;1.77;;;1.67;;
38715;SDS011;24833;49.324;8.694;2023-07-28T01:31:03;1.58;;;1.48;;
38715;SDS011;24833;49.324;8.694;2023-07-28T01:33:32;1.60;;;1.50;;
38715;SDS011;24833;49.324;8.694;2023-07-28T01:36:00;1.70;;;1.60;;
38715;SDS011;24833;49.324;8.694;2023-07-28T01:38:27;2.97;;;1.55;;
38715;SDS011;24833;49.324;8.694;2023-07-28T01:40:55;8.82;;;2.30;;
38715;SDS011;24833;49.324;8.694;2023-07-28T01:43:22;2.17;;;1.85;;
38715;SDS011;24833;49.324;8.694;2023-07-28T01:45:49;1.90;;;1.67;;
38715;SDS011;24833;49.324;8.694;2023-07-28T01:48:16;1.60;;;1.50;;
38715;SDS011;24833;49.324;8.694;2023-07-28T01:50:43;2.22;;;1.90;;
38715;SDS011;24833;49.324;8.694;2023-07-28T01:53:11;2.83;;;1.90;;
38715;SDS011;24833;49.324;8.694;2023-07-28T01:55:38;2.05;;;1.90;;
38715;SDS011;24833;49.324;8.694;2023-07-28T01:58:05;2.03;;;1.67;;
38715;SDS011;24833;49.324;8.694;2023-07-28T02:00:32;1.70;;;1.52;;
38715;SDS011;24833;49.324;8.694;2023-07-28T02:02:59;1.90;;;1.67;;
38715;SDS011;24833;49.324;8.694;2023-07-28T02:05:29;2.35;;;2.08;;
38715;SDS011;24833;49.324;8.694;2023-07-28T02:07:56;1.52;;;1.42;;
38715;SDS011;24833;49.324;8.694;2023-07-28T02:10:26;1.90;;;1.80;;
38715;SDS011;24833;49.324;8.694;2023-07-28T02:15:22;1.80;;;1.40;;
38715;SDS011;24833;49.324;8.694;2023-07-28T02:17:49;1.58;;;1.48;;
38715;SDS011;24833;49.324;8.694;2023-07-28T02:20:22;1.65;;;1.55;;
38715;SDS011;24833;49.324;8.694;2023-07-28T02:22:49;2.00;;;1.65;;
38715;SDS011;24833;49.324;8.694;2023-07-28T02:25:16;2.30;;;1.92;;
38715;SDS011;24833;49.324;8.694;2023-07-28T02:27:43;1.73;;;1.55;;
38715;SDS011;24833;49.324;8.694;2023-07-28T02:30:10;1.67;;;1.58;;
38715;SDS011;24833;49.324;8.694;2023-07-28T02:32:37;1.67;;;1.48;;
38715;SDS011;24833;49.324;8.694;2023-07-28T02:35:04;2.63;;;1.75;;
38715;SDS011;24833;49.324;8.694;2023-07-28T02:37:32;3.08;;;2.00;;
38715;SDS011;24833;49.324;8.694;2023-07-28T02:39:59;2.13;;;1.60;;
38715;SDS011;24833;49.324;8.694;2023-07-28T02:42:26;2.65;;;1.80;;
38715;SDS011;24833;49.324;8.694;2023-07-28T02:44:53;1.80;;;1.70;;
38715;SDS011;24833;49.324;8.694;2023-07-28T02:47:20;2.00;;;1.65;;
38715;SDS011;24833;49.324;8.694;2023-07-28T02:49:47;2.35;;;2.03;;
38715;SDS011;24833;49.324;8.694;2023-07-28T02:52:14;1.75;;;1.65;;
38715;SDS011;24833;49.324;8.694;2023-07-28T02:54:41;1.95;;;1.75;;
38715;SDS011;24833;49.324;8.694;2023-07-28T02:57:08;2.42;;;2.05;;
38715;SDS011;24833;49.324;8.694;2023-07-28T02:59:38;2.00;;;1.80;;
38715;SDS011;24833;49.324;8.694;2023-07-28T03:02:05;2.05;;;1.85;;
38715;SDS011;24833;49.324;8.694;2023-07-28T03:04:32;1.83;;;1.73;;
38715;SDS011;24833;49.324;8.694;2023-07-28T03:07:14;1.70;;;1.60;;
38715;SDS011;24833;49.324;8.694;2023-07-28T03:09:44;1.90;;;1.80;;
38715;SDS011;24833;49.324;8.694;2023-07-28T03:12:12;2.17;;;1.98;;
38715;SDS011;24833;49.324;8.694;2023-07-28T03:14:40;1.67;;;1.58;;
38715;SDS011;24833;49.324;8.694;2023-07-28T03:17:07;2.72;;;2.00;;
38715;SDS011;24833;49.324;8.694;2023-07-28T03:19:34;2.20;;;2.05;;
38715;SDS011;24833;49.324;8.694;2023-07-28T03:22:01;3.25;;;2.50;;
38715;SDS011;24833;49.324;8.694;2023-07-28T03:24:28;2.40;;;2.20;;
38715;SDS011;24833;49.324;8.694;2023-07-28T03:26:55;2.47;;;2.15;;
38715;SDS011;24833;49.324;8.694;2023-07-28T03:29:22;2.58;;;2.10;;
38715;SDS011;24833;49.324;8.694;2023-07-28T03:31:50;2.42;;;2.13;;
38715;SDS011;24833;49.324;8.694;2023-07-28T03:34:18;2.50;;;2.10;;
38715;SDS011;24833;49.324;8.694;2023-07-28T03:36:45;2.50;;;1.70;;
38715;SDS011;24833;49.324;8.694;2023-07-28T03:39:14;3.17;;;2.00;;
38715;SDS011;24833;49.324;8.694;2023-07-28T03:41:43;1.77;;;1.67;;
38715;SDS011;24833;49.324;8.694;2023-07-28T03:44:10;2.30;;;1.80;;
38715;SDS011;24833;49.324;8.694;2023-07-28T03:46:37;1.98;;;1.77;;
38715;SDS011;24833;49.324;8.694;2023-07-28T03:49:04;2.30;;;1.65;;
38715;SDS011;24833;49.324;8.694;2023-07-28T03:51:31;1.95;;;1.77;;
38715;SDS011;24833;49.324;8.694;2023-07-28T03:53:58;1.85;;;1.67;;
38715;SDS011;24833;49.324;8.694;2023-07-28T03:56:25;3.22;;;2.22;;
38715;SDS011;24833;49.324;8.694;2023-07-28T03:58:55;2.05;;;1.83;;
38715;SDS011;24833;49.324;8.694;2023-07-28T04:01:22;1.80;;;1.63;;
38715;SDS011;24833;49.324;8.694;2023-07-28T04:03:50;2.28;;;1.95;;
38715;SDS011;24833;49.324;8.694;2023-07-28T04:06:17;2.35;;;2.00;;
38715;SDS011;24833;49.324;8.694;2023-07-28T04:08:44;2.35;;;2.15;;
38715;SDS011;24833;49.324;8.694;2023-07-28T04:11:12;4.35;;;2.20;;
38715;SDS011;24833;49.324;8.694;2023-07-28T04:13:39;3.60;;;1.70;;
38715;SDS011;24833;49.324;8.694;2023-07-28T04:16:06;3.00;;;2.00;;
38715;SDS011;24833;49.324;8.694;2023-07-28T04:18:34;2.67;;;2.22;;
38715;SDS011;24833;49.324;8.694;2023-07-28T04:21:01;2.53;;;1.88;;
38715;SDS011;24833;49.324;8.694;2023-07-28T04:23:28;2.47;;;2.20;;
38715;SDS011;24833;49.324;8.694;2023-07-28T04:25:57;4.05;;;2.25;;
38715;SDS011;24833;49.324;8.694;2023-07-28T04:28:27;2.78;;;2.38;;
38715;SDS011;24833;49.324;8.694;2023-07-28T04:30:54;4.47;;;2.20;;
38715;SDS011;24833;49.324;8.694;2023-07-28T04:33:44;2.40;;;2.08;;
38715;SDS011;24833;49.324;8.694;2023-07-28T04:36:11;1.83;;;1.60;;
38715;SDS011;24833;49.324;8.694;2023-07-28T04:38:38;2.83;;;2.05;;
38715;SDS011;24833;49.324;8.694;2023-07-28T04:41:05;1.83;;;1.73;;
38715;SDS011;24833;49.324;8.694;2023-07-28T04:43:45;2.38;;;2.17;;
38715;SDS011;24833;49.324;8.694;2023-07-28T04:46:13;2.05;;;1.85;;
38715;SDS011;24833;49.324;8.694;2023-07-28T04:48:42;2.40;;;1.95;;
38715;SDS011;24833;49.324;8.694;2023-07-28T04:51:32;3.13;;;1.80;;
38715;SDS011;24833;49.324;8.694;2023-07-28T04:54:21;1.92;;;1.77;;
38715;SDS011;24833;49.324;8.694;2023-07-28T04:56:48;2.20;;;1.88;;
38715;SDS011;24833;49.324;8.694;2023-07-28T04:59:24;1.73;;;1.63;;
38715;SDS011;24833;49.324;8.694;2023-07-28T05:01:51;2.10;;;1.95;;
38715;SDS011;24833;49.324;8.694;2023-07-28T05:04:18;2.60;;;2.10;;
38715;SDS011;24833;49.324;8.694;2023-07-28T05:06:47;2.00;;;1.80;;
38715;SDS011;24833;49.324;8.694;2023-07-28T05:09:14;4.00;;;1.80;;
38715;SDS011;24833;49.324;8.694;2023-07-28T05:11:41;2.65;;;2.00;;
38715;SDS011;24833;49.324;8.694;2023-07-28T05:14:08;2.30;;;1.80;;
38715;SDS011;24833;49.324;8.694;2023-07-28T05:16:36;2.30;;;2.10;;
38715;SDS011;24833;49.324;8.694;2023-07-28T05:19:22;3.08;;;1.95;;
38715;SDS011;24833;49.324;8.694;2023-07-28T05:21:51;2.60;;;1.85;;
38715;SDS011;24833;49.324;8.694;2023-07-28T05:24:23;2.47;;;2.08;;
38715;SDS011;24833;49.324;8.694;2023-07-28T05:26:50;3.55;;;2.03;;
38715;SDS011;24833;49.324;8.694;2023-07-28T05:29:18;1.67;;;1.58;;
38715;SDS011;24833;49.324;8.694;2023-07-28T05:31:47;3.15;;;1.90;;
38715;SDS011;24833;49.324;8.694;2023-07-28T05:34:21;3.10;;;1.50;;
38715;SDS011;24833;49.324;8.694;2023-07-28T05:36:48;2.10;;;1.83;;
38715;SDS011;24833;49.324;8.694;2023-07-28T05:39:16;1.50;;;1.40;;
38715;SDS011;24833;49.324;8.694;2023-07-28T05:41:44;1.83;;;1.73;;
38715;SDS011;24833;49.324;8.694;2023-07-28T05:44:13;2.53;;;1.65;;
38715;SDS011;24833;49.324;8.694;2023-07-28T05:46:41;2.35;;;1.90;;
38715;SDS011;24833;49.324;8.694;2023-07-28T05:49:08;1.85;;;1.58;;
38715;SDS011;24833;49.324;8.694;2023-07-28T05:51:35;2.45;;;2.13;;
38715;SDS011;24833;49.324;8.694;2023-07-28T05:54:02;2.08;;;1.88;;
38715;SDS011;24833;49.324;8.694;2023-07-28T05:56:29;3.85;;;1.92;;
38715;SDS011;24833;49.324;8.694;2023-07-28T05:58:56;2.45;;;2.10;;
38715;SDS011;24833;49.324;8.694;2023-07-28T06:01:24;3.33;;;2.50;;
38715;SDS011;24833;49.324;8.694;2023-07-28T06:04:16;5.80;;;3.15;;
38715;SDS011;24833;49.324;8.694;2023-07-28T06:06:46;3.47;;;2.38;;
38715;SDS011;24833;49.324;8.694;2023-07-28T06:09:16;3.65;;;2.65;;
38715;SDS011;24833;49.324;8.694;2023-07-28T06:11:43;4.75;;;2.80;;
38715;SDS011;24833;49.324;8.694;2023-07-28T06:14:11;2.47;;;2.28;;
38715;SDS011;24833;49.324;8.694;2023-07-28T06:16:38;3.72;;;2.83;;
38715;SDS011;24833;49.324;8.694;2023-07-28T06:19:06;4.00;;;2.80;;
38715;SDS011;24833;49.324;8.694;2023-07-28T06:21:35;4.47;;;2.60;;
38715;SDS011;24833;49.324;8.694;2023-07-28T06:24:03;4.13;;;2.88;;
38715;SDS011;24833;49.324;8.694;2023-07-28T06:26:32;4.45;;;3.35;;
38715;SDS011;24833;49.324;8.694;2023-07-28T06:29:02;4.95;;;2.90;;
38715;SDS011;24833;49.324;8.694;2023-07-28T06:31:29;2.85;;;2.55;;
38715;SDS011;24833;49.324;8.694;2023-07-28T06:33:57;2.72;;;2.53;;
38715;SDS011;24833;49.324;8.694;2023-07-28T06:36:25;2.97;;;2.60;;
38715;SDS011;24833;49.324;8.694;2023-07-28T06:38:55;4.40;;;2.63;;
38715;SDS011;24833;49.324;8.694;2023-07-28T06:41:23;3.00;;;2.63;;
38715;SDS011;24833;49.324;8.694;2023-07-28T06:43:56;3.38;;;2.65;;
38715;SDS011;24833;49.324;8.694;2023-07-28T06:46:24;3.78;;;2.63;;
38715;SDS011;24833;49.324;8.694;2023-07-28T06:48:51;2.72;;;2.50;;
38715;SDS011;24833;49.324;8.694;2023-07-28T06:51:19;3.75;;;2.78;;
38715;SDS011;24833;49.324;8.694;2023-07-28T06:53:46;3.38;;;2.50;;
38715;SDS011;24833;49.324;8.694;2023-07-28T06:56:14;2.72;;;2.42;;
38715;SDS011;24833;49.324;8.694;2023-07-28T06:58:42;3.17;;;2.42;;
38715;SDS011;24833;49.324;8.694;2023-07-28T07:01:20;2.17;;;1.95;;
38715;SDS011;24833;49.324;8.694;2023-07-28T07:03:48;2.85;;;2.10;;
38715;SDS011;24833;49.324;8.694;2023-07-28T07:06:15;5.32;;;2.25;;
38715;SDS011;24833;49.324;8.694;2023-07-28T07:08:45;2.45;;;2.00;;
38715;SDS011;24833;49.324;8.694;2023-07-28T07:11:12;2.65;;;1.73;;
38715;SDS011;24833;49.324;8.694;2023-07-28T07:13:39;2.50;;;1.85;;
38715;SDS011;24833;49.324;8.694;2023-07-28T07:16:15;1.85;;;1.65;;
38715;SDS011;24833;49.324;8.694;2023-07-28T07:21:19;4.55;;;1.85;;
38715;SDS011;24833;49.324;8.694;2023-07-28T07:23:47;1.98;;;1.80;;
38715;SDS011;24833;49.324;8.694;2023-07-28T07:26:26;2.40;;;1.90;;
38715;SDS011;24833;49.324;8.694;2023-07-28T07:28:53;1.83;;;1.73;;
38715;SDS011;24833;49.324;8.694;2023-07-28T07:31:20;3.30;;;2.45;;
38715;SDS011;24833;49.324;8.694;2023-07-28T07:33:47;1.70;;;1.60;;
38715;SDS011;24833;49.324;8.694;2023-07-28T07:36:14;1.75;;;1.65;;
38715;SDS011;24833;49.324;8.694;2023-07-28T07:38:43;1.45;;;1.30;;
38715;SDS011;24833;49.324;8.694;2023-07-28T07:43:46;1.58;;;1.48;;
38715;SDS011;24833;49.324;8.694;2023-07-28T07:46:15;1.85;;;1.70;;
38715;SDS011;24833;49.324;8.694;2023-07-28T07:48:42;2.25;;;1.80;;
38715;SDS011;24833;49.324;8.694;2023-07-28T07:51:09;1.98;;;1.60;;
38715;SDS011;24833;49.324;8.694;2023-07-28T07:53:37;2.35;;;1.95;;
38715;SDS011;24833;49.324;8.694;2023-07-28T07:56:04;2.33;;;2.13;;
38715;SDS011;24833;49.324;8.694;2023-07-28T07:58:33;1.83;;;1.38;;
38715;SDS011;24833;49.324;8.694;2023-07-28T08:01:01;1.45;;;1.35;;
38715;SDS011;24833;49.324;8.694;2023-07-28T08:03:29;2.45;;;1.75;;
38715;SDS011;24833;49.324;8.694;2023-07-28T08:05:58;1.50;;;1.40;;
38715;SDS011;24833;49.324;8.694;2023-07-28T08:08:25;2.10;;;1.95;;
38715;SDS011;24833;49.324;8.694;2023-07-28T08:10:53;1.85;;;1.70;;
38715;SDS011;24833;49.324;8.694;2023-07-28T08:13:21;1.80;;;1.70;;
38715;SDS011;24833;49.324;8.694;2023-07-28T08:15:48;3.92;;;1.95;;
38715;SDS011;24833;49.324;8.694;2023-07-28T08:18:15;1.60;;;1.50;;
38715;SDS011;24833;49.324;8.694;2023-07-28T08:20:43;2.92;;;1.65;;
38715;SDS011;24833;49.324;8.694;2023-07-28T08:23:10;2.80;;;1.70;;
38715;SDS011;24833;49.324;8.694;2023-07-28T08:25:37;2.33;;;1.75;;
38715;SDS011;24833;49.324;8.694;2023-07-28T08:28:04;1.58;;;1.50;;
38715;SDS011;24833;49.324;8.694;2023-07-28T08:30:31;1.67;;;1.58;;
38715;SDS011;24833;49.324;8.694;2023-07-28T08:32:59;2.63;;;1.92;;
38715;SDS011;24833;49.324;8.694;2023-07-28T08:35:26;1.67;;;1.55;;
38715;SDS011;24833;49.324;8.694;2023-07-28T08:37:54;2.33;;;1.67;;
38715;SDS011;24833;49.324;8.694;2023-07-28T08:40:21;1.92;;;1.83;;
38715;SDS011;24833;49.324;8.694;2023-07-28T08:42:48;2.28;;;2.08;;
38715;SDS011;24833;49.324;8.694;2023-07-28T08:45:17;2.35;;;2.13;;
38715;SDS011;24833;49.324;8.694;2023-07-28T08:47:45;5.95;;;2.55;;
38715;SDS011;24833;49.324;8.694;2023-07-28T08:50:13;3.15;;;2.20;;
38715;SDS011;24833;49.324;8.694;2023-07-28T08:52:40;3.53;;;2.80;;
38715;SDS011;24833;49.324;8.694;2023-07-28T08:55:07;2.10;;;1.90;;
38715;SDS011;24833;49.324;8.694;2023-07-28T08:57:35;2.40;;;1.88;;
38715;SDS011;24833;49.324;8.694;2023-07-28T09:00:09;2.50;;;2.30;;
38715;SDS011;24833;49.324;8.694;2023-07-28T09:02:40;2.10;;;1.80;;
38715;SDS011;24833;49.324;8.694;2023-07-28T09:05:18;2.50;;;2.30;;
38715;SDS011;24833;49.324;8.694;2023-07-28T09:07:46;3.97;;;2.00;;
38715;SDS011;24833;49.324;8.694;2023-07-28T09:10:14;2.45;;;2.25;;
38715;SDS011;24833;49.324;8.694;2023-07-28T09:12:45;4.07;;;2.88;;
38715;SDS011;24833;49.324;8.694;2023-07-28T09:15:15;2.03;;;1.77;;
38715;SDS011;24833;49.324;8.694;2023-07-28T09:17:45;2.00;;;1.90;;
38715;SDS011;24833;49.324;8.694;2023-07-28T09:20:14;2.88;;;2.10;;
38715;SDS011;24833;49.324;8.694;2023-07-28T09:22:45;2.28;;;2.03;;
38715;SDS011;24833;49.324;8.694;2023-07-28T09:25:13;2.58;;;2.38;;
38715;SDS011;24833;49.324;8.694;2023-07-28T09:27:49;2.45;;;2.22;;
38715;SDS011;24833;49.324;8.694;2023-07-28T09:30:18;2.30;;;2.10;;
38715;SDS011;24833;49.324;8.694;2023-07-28T09:32:46;2.50;;;2.10;;
38715;SDS011;24833;49.324;8.694;2023-07-28T09:35:16;1.88;;;1.77;;
38715;SDS011;24833;49.324;8.694;2023-07-28T09:37:44;3.13;;;2.15;;
38715;SDS011;24833;49.324;8.694;2023-07-28T09:40:20;2.33;;;1.90;;
38715;SDS011;24833;49.324;8.694;2023-07-28T09:42:48;1.95;;;1.80;;
38715;SDS011;24833;49.324;8.694;2023-07-28T09:45:21;2.75;;;1.92;;
38715;SDS011;24833;49.324;8.694;2023-07-28T09:48:03;1.85;;;1.75;;
38715;SDS011;24833;49.324;8.694;2023-07-28T09:50:37;2.13;;;1.92;;
38715;SDS011;24833;49.324;8.694;2023-07-28T09:53:07;2.20;;;2.00;;
38715;SDS011;24833;49.324;8.694;2023-07-28T09:58:09;1.85;;;1.67;;
38715;SDS011;24833;49.324;8.694;2023-07-28T10:00:39;4.80;;;1.75;;
38715;SDS011;24833;49.324;8.694;2023-07-28T10:03:07;2.65;;;1.98;;
38715;SDS011;24833;49.324;8.694;2023-07-28T10:05:36;2.28;;;2.00;;
38715;SDS011;24833;49.324;8.694;2023-07-28T10:08:04;1.63;;;1.50;;
38715;SDS011;24833;49.324;8.694;2023-07-28T10:10:31;2.30;;;1.85;;
38715;SDS011;24833;49.324;8.694;2023-07-28T10:12:59;2.30;;;1.70;;
38715;SDS011;24833;49.324;8.694;2023-07-28T10:15:31;2.33;;;1.85;;
38715;SDS011;24833;49.324;8.694;2023-07-28T10:18:00;2.28;;;1.88;;
38715;SDS011;24833;49.324;8.694;2023-07-28T10:25:40;1.90;;;1.73;;
38715;SDS011;24833;49.324;8.694;2023-07-28T10:30:54;2.08;;;1.90;;
38715;SDS011;24833;49.324;8.694;2023-07-28T10:33:29;3.05;;;2.50;;
38715;SDS011;24833;49.324;8.694;2023-07-28T10:36:17;1.77;;;1.67;;
38715;SDS011;24833;49.324;8.694;2023-07-28T10:41:31;2.97;;;1.98;;
38715;SDS011;24833;49.324;8.694;2023-07-28T10:46:29;4.05;;;1.80;;
38715;SDS011;24833;49.324;8.694;2023-07-28T10:49:04;2.10;;;1.90;;
38715;SDS011;24833;49.324;8.694;2023-07-28T10:51:31;1.70;;;1.60;;
38715;SDS011;24833;49.324;8.694;2023-07-28T10:54:02;1.75;;;1.58;;
38715;SDS011;24833;49.324;8.694;2023-07-28T10:56:29;1.70;;;1.60;;
38715;SDS011;24833;49.324;8.694;2023-07-28T10:59:00;2.15;;;1.85;;
38715;SDS011;24833;49.324;8.694;2023-07-28T11:01:39;1.88;;;1.73;;
38715;SDS011;24833;49.324;8.694;2023-07-28T11:06:47;2.08;;;1.63;;
38715;SDS011;24833;49.324;8.694;2023-07-28T11:09:16;1.65;;;1.55;;
38715;SDS011;24833;49.324;8.694;2023-07-28T11:11:46;1.75;;;1.60;;
38715;SDS011;24833;49.324;8.694;2023-07-28T11:14:15;1.73;;;1.63;;
38715;SDS011;24833;49.324;8.694;2023-07-28T11:16:44;1.50;;;1.40;;
38715;SDS011;24833;49.324;8.694;2023-07-28T11:19:14;2.22;;;1.75;;
38715;SDS011;24833;49.324;8.694;2023-07-28T11:21:42;1.90;;;1.80;;
38715;SDS011;24833;49.324;8.694;2023-07-28T11:24:10;1.65;;;1.55;;
38715;SDS011;24833;49.324;8.694;2023-07-28T11:26:38;1.80;;;1.70;;
38715;SDS011;24833;49.324;8.694;2023-07-28T11:29:06;1.80;;;1.55;;
38715;SDS011;24833;49.324;8.694;2023-07-28T11:31:34;1.73;;;1.63;;
38715;SDS011;24833;49.324;8.694;2023-07-28T11:34:01;2.28;;;2.00;;
38715;SDS011;24833;49.324;8.694;2023-07-28T11:36:29;2.25;;;1.60;;
38715;SDS011;24833;49.324;8.694;2023-07-28T11:38:57;3.40;;;1.60;;
38715;SDS011;24833;49.324;8.694;2023-07-28T11:41:26;1.73;;;1.33;;
38715;SDS011;24833;49.324;8.694;2023-07-28T11:43:54;1.65;;;1.40;;
38715;SDS011;24833;49.324;8.694;2023-07-28T11:46:41;1.92;;;1.73;;
38715;SDS011;24833;49.324;8.694;2023-07-28T11:49:13;1.42;;;1.33;;
38715;SDS011;24833;49.324;8.694;2023-07-28T11:51:49;3.35;;;1.90;;
38715;SDS011;24833;49.324;8.694;2023-07-28T11:54:20;3.72;;;1.85;;
38715;SDS011;24833;49.324;8.694;2023-07-28T11:56:50;1.60;;;1.50;;
38715;SDS011;24833;49.324;8.694;2023-07-28T11:59:23;1.83;;;1.50;;
38715;SDS011;24833;49.324;8.694;2023-07-28T12:01:58;1.27;;;1.17;;
38715;SDS011;24833;49.324;8.694;2023-07-28T12:04:30;1.48;;;1.38;;
38715;SDS011;24833;49.324;8.694;2023-07-28T12:09:48;1.33;;;1.23;;
38715;SDS011;24833;49.324;8.694;2023-07-28T12:12:22;1.45;;;1.35;;
38715;SDS011;24833;49.324;8.694;2023-07-28T12:14:51;1.42;;;1.20;;
38715;SDS011;24833;49.324;8.694;2023-07-28T12:17:23;1.50;;;1.15;;
38715;SDS011;24833;49.324;8.694;2023-07-28T12:20:13;1.30;;;1.20;;
38715;SDS011;24833;49.324;8.694;2023-07-28T12:22:42;1.45;;;1.35;;
38715;SDS011;24833;49.324;8.694;2023-07-28T12:25:11;1.17;;;1.10;;
38715;SDS011;24833;49.324;8.694;2023-07-28T12:27:38;1.55;;;1.45;;
38715;SDS011;24833;49.324;8.694;2023-07-28T12:30:07;1.50;;;1.40;;
38715;SDS011;24833;49.324;8.694;2023-07-28T12:32:42;1.40;;;1.27;;
38715;SDS011;24833;49.324;8.694;2023-07-28T12:35:28;2.38;;;1.70;;
38715;SDS011;24833;49.324;8.694;2023-07-28T12:38:04;1.20;;;1.08;;
38715;SDS011;24833;49.324;8.694;2023-07-28T12:40:35;1.50;;;1.20;;
38715;SDS011;24833;49.324;8.694;2023-07-28T12:43:05;1.40;;;1.30;;
38715;SDS011;24833;49.324;8.694;2023-07-28T12:45:33;2.25;;;1.33;;
38715;SDS011;24833;49.324;8.694;2023-07-28T12:48:03;1.50;;;1.40;;
38715;SDS011;24833;49.324;8.694;2023-07-28T12:50:30;2.28;;;1.70;;
38715;SDS011;24833;49.324;8.694;2023-07-28T12:53:07;1.40;;;1.33;;
38715;SDS011;24833;49.324;8.694;2023-07-28T12:55:43;2.33;;;1.40;;
38715;SDS011;24833;49.324;8.694;2023-07-28T12:58:13;4.10;;;1.55;;
38715;SDS011;24833;49.324;8.694;2023-07-28T13:00:43;1.67;;;1.58;;
38715;SDS011;24833;49.324;8.694;2023-07-28T13:03:13;2.45;;;1.67;;
38715;SDS011;24833;49.324;8.694;2023-07-28T13:05:41;1.48;;;1.38;;
38715;SDS011;24833;49.324;8.694;2023-07-28T13:08:13;2.72;;;1.60;;
38715;SDS011;24833;49.324;8.694;2023-07-28T13:10:40;1.50;;;1.40;;
38715;SDS011;24833;49.324;8.694;2023-07-28T13:13:10;1.58;;;1.45;;
38715;SDS011;24833;49.324;8.694;2023-07-28T13:15:40;1.65;;;1.55;;
38715;SDS011;24833;49.324;8.694;2023-07-28T13:18:07;2.08;;;1.70;;
38715;SDS011;24833;49.324;8.694;2023-07-28T13:20:34;2.38;;;1.90;;
38715;SDS011;24833;49.324;8.694;2023-07-28T13:23:01;3.13;;;1.75;;
38715;SDS011;24833;49.324;8.694;2023-07-28T13:25:28;1.75;;;1.55;;
38715;SDS011;24833;49.324;8.694;2023-07-28T13:27:55;1.92;;;1.52;;
38715;SDS011;24833;49.324;8.694;2023-07-28T13:30:23;2.28;;;1.77;;
38715;SDS011;24833;49.324;8.694;2023-07-28T13:32:52;2.33;;;1.80;;
38715;SDS011;24833;49.324;8.694;2023-07-28T13:35:20;2.00;;;1.90;;
38715;SDS011;24833;49.324;8.694;2023-07-28T13:37:47;1.92;;;1.77;;
38715;SDS011;24833;49.324;8.694;2023-07-28T13:40:14;4.47;;;2.70;;
38715;SDS011;24833;49.324;8.694;2023-07-28T13:42:41;2.35;;;2.13;;
38715;SDS011;24833;49.324;8.694;2023-07-28T13:45:08;2.05;;;1.85;;
38715;SDS011;24833;49.324;8.694;2023-07-28T13:47:37;2.80;;;1.85;;
38715;SDS011;24833;49.324;8.694;2023-07-28T13:50:05;3.95;;;1.88;;
38715;SDS011;24833;49.324;8.694;2023-07-28T13:52:33;1.88;;;1.67;;
38715;SDS011;24833;49.324;8.694;2023-07-28T13:55:00;1.52;;;1.42;;
38715;SDS011;24833;49.324;8.694;2023-07-28T13:57:33;2.72;;;1.88;;
38715;SDS011;24833;49.324;8.694;2023-07-28T14:00:00;1.80;;;1.70;;
38715;SDS011;24833;49.324;8.694;2023-07-28T14:02:30;1.63;;;1.52;;
38715;SDS011;24833;49.324;8.694;2023-07-28T14:04:57;2.22;;;2.03;;
38715;SDS011;24833;49.324;8.694;2023-07-28T14:07:24;2.65;;;2.10;;
38715;SDS011;24833;49.324;8.694;2023-07-28T14:09:51;3.28;;;1.83;;
38715;SDS011;24833;49.324;8.694;2023-07-28T14:12:18;2.45;;;2.00;;
38715;SDS011;24833;49.324;8.694;2023-07-28T14:14:45;1.55;;;1.45;;
38715;SDS011;24833;49.324;8.694;2023-07-28T14:17:12;1.80;;;1.70;;
38715;SDS011;24833;49.324;8.694;2023-07-28T14:19:40;1.65;;;1.50;;
38715;SDS011;24833;49.324;8.694;2023-07-28T14:22:07;1.85;;;1.40;;
38715;SDS011;24833;49.324;8.694;2023-07-28T14:24:35;1.45;;;1.35;;
38715;SDS011;24833;49.324;8.694;2023-07-28T14:27:02;1.65;;;1.33;;
38715;SDS011;24833;49.324;8.694;2023-07-28T14:29:31;1.98;;;1.70;;
38715;SDS011;24833;49.324;8.694;2023-07-28T14:31:58;1.98;;;1.73;;
38715;SDS011;24833;49.324;8.694;2023-07-28T14:34:25;2.42;;;1.77;;
38715;SDS011;24833;49.324;8.694;2023-07-28T14:36:52;3.05;;;1.83;;
38715;SDS011;24833;49.324;8.694;2023-07-28T14:39:19;1.75;;;1.48;;
38715;SDS011;24833;49.324;8.694;2023-07-28T14:41:46;2.05;;;1.92;;
38715;SDS011;24833;49.324;8.694;2023-07-28T14:44:13;1.83;;;1.55;;
38715;SDS011;24833;49.324;8.694;2023-07-28T14:46:43;2.23;;;1.70;;
38715;SDS011;24833;49.324;8.694;2023-07-28T14:49:10;3.83;;;1.80;;
38715;SDS011;24833;49.324;8.694;2023-07-28T14:51:37;1.90;;;1.77;;
38715;SDS011;24833;49.324;8.694;2023-07-28T14:54:04;1.88;;;1.70;;
38715;SDS011;24833;49.324;8.694;2023-07-28T14:56:32;2.30;;;2.05;;
38715;SDS011;24833;49.324;8.694;2023-07-28T14:58:59;4.22;;;2.63;;
38715;SDS011;24833;49.324;8.694;2023-07-28T15:01:30;2.50;;;2.30;;
38715;SDS011;24833;49.324;8.694;2023-07-28T15:03:57;2.15;;;2.05;;
38715;SDS011;24833;49.324;8.694;2023-07-28T15:06:25;2.20;;;2.00;;
38715;SDS011;24833;49.324;8.694;2023-07-28T15:08:52;2.75;;;2.33;;
38715;SDS011;24833;49.324;8.694;2023-07-28T15:11:19;5.57;;;2.38;;
38715;SDS011;24833;49.324;8.694;2023-07-28T15:13:46;2.78;;;2.10;;
38715;SDS011;24833;49.324;8.694;2023-07-28T15:16:13;2.00;;;1.80;;
38715;SDS011;24833;49.324;8.694;2023-07-28T15:18:41;3.03;;;1.95;;
38715;SDS011;24833;49.324;8.694;2023-07-28T15:21:11;2.45;;;2.05;;
38715;SDS011;24833;49.324;8.694;2023-07-28T15:23:38;2.00;;;1.75;;
38715;SDS011;24833;49.324;8.694;2023-07-28T15:26:08;3.28;;;2.03;;
38715;SDS011;24833;49.324;8.694;2023-07-28T15:28:35;2.60;;;2.05;;
38715;SDS011;24833;49.324;8.694;2023-07-28T15:31:02;2.80;;;2.17;;